createdAt,value
2023-03-02T00:01:29.251Z,94691.31
2023-03-02T00:03:58.067Z,94686.50
2023-03-02T00:06:24.477Z,94694.97
2023-03-02T00:08:50.860Z,94700.53
2023-03-02T00:11:17.277Z,94693.19
2023-03-02T00:13:43.709Z,94699.59
2023-03-02T00:16:10.179Z,94700.00
2023-03-02T00:18:36.582Z,94700.00
2023-03-02T00:21:02.948Z,94702.59
2023-03-02T00:23:29.311Z,94694.34
2023-03-02T00:25:55.699Z,94703.66
2023-03-02T00:28:22.098Z,94705.91
2023-03-02T00:30:48.482Z,94706.75
2023-03-02T00:33:14.917Z,94697.50
2023-03-02T00:35:41.347Z,94689.59
2023-03-02T00:38:07.829Z,94689.69
2023-03-02T00:40:34.252Z,94695.66
2023-03-02T00:43:00.647Z,94696.28
2023-03-02T00:45:27.034Z,94693.47
2023-03-02T00:47:53.388Z,94694.63
2023-03-02T00:50:19.762Z,94684.25
2023-03-02T00:52:46.136Z,94677.72
2023-03-02T00:55:12.576Z,94670.75
2023-03-02T00:57:39.007Z,94677.44
2023-03-02T01:00:05.395Z,94677.97
2023-03-02T01:02:31.874Z,94685.97
2023-03-02T01:04:58.397Z,94682.94
2023-03-02T01:07:24.797Z,94684.16
2023-03-02T01:09:51.169Z,94675.03
2023-03-02T01:12:17.533Z,94671.50
2023-03-02T01:14:43.948Z,94678.13
2023-03-02T01:17:10.333Z,94674.00
2023-03-02T01:19:36.741Z,94678.59
2023-03-02T01:22:03.111Z,94672.06
2023-03-02T01:24:29.535Z,94675.97
2023-03-02T01:26:55.926Z,94676.53
2023-03-02T01:29:22.366Z,94672.34
2023-03-02T01:31:48.803Z,94674.41
2023-03-02T01:34:15.353Z,94668.28
2023-03-02T01:36:41.729Z,94677.72
2023-03-02T01:39:08.110Z,94661.88
2023-03-02T01:41:34.499Z,94671.84
2023-03-02T01:44:00.853Z,94679.91
2023-03-02T01:46:27.217Z,94672.25
2023-03-02T01:48:53.623Z,94679.50
2023-03-02T01:51:19.988Z,94682.09
2023-03-02T01:53:46.368Z,94674.88
2023-03-02T01:56:12.759Z,94672.28
2023-03-02T01:58:39.185Z,94658.91
2023-03-02T02:01:05.616Z,94667.72
2023-03-02T02:03:32.031Z,94667.94
2023-03-02T02:05:58.420Z,94682.09
2023-03-02T02:08:24.817Z,94675.50
2023-03-02T02:10:51.178Z,94665.03
2023-03-02T02:13:17.590Z,94670.81
2023-03-02T02:15:44.012Z,94668.97
2023-03-02T02:18:10.471Z,94668.97
2023-03-02T02:20:36.857Z,94666.81
2023-03-02T02:23:03.296Z,94665.25
2023-03-02T02:25:29.690Z,94670.91
2023-03-02T02:27:56.064Z,94667.44
2023-03-02T02:30:22.447Z,94670.28
2023-03-02T02:32:48.840Z,94672.53
2023-03-02T02:35:15.320Z,94675.22
2023-03-02T02:37:41.693Z,94672.13
2023-03-02T02:40:08.083Z,94670.13
2023-03-02T02:42:34.481Z,94667.03
2023-03-02T02:45:00.896Z,94662.91
2023-03-02T02:47:27.289Z,94677.84
2023-03-02T02:49:53.658Z,94670.66
2023-03-02T02:52:20.060Z,94668.25
2023-03-02T02:54:46.453Z,94672.47
2023-03-02T02:57:12.884Z,94675.63
2023-03-02T02:59:39.291Z,94674.38
2023-03-02T03:02:05.670Z,94671.28
2023-03-02T03:04:32.074Z,94667.56
2023-03-02T03:06:58.486Z,94664.09
2023-03-02T03:09:24.976Z,94663.28
2023-03-02T03:11:51.453Z,94666.66
2023-03-02T03:14:17.819Z,94681.13
2023-03-02T03:16:44.267Z,94678.22
2023-03-02T03:19:10.746Z,94675.22
2023-03-02T03:21:37.128Z,94673.97
2023-03-02T03:24:03.521Z,94679.56
2023-03-02T03:26:30.253Z,94683.69
2023-03-02T03:28:56.873Z,94682.66
2023-03-02T03:31:23.276Z,94683.75
2023-03-02T03:33:49.973Z,94690.91
2023-03-02T03:36:16.337Z,94689.44
2023-03-02T03:38:42.737Z,94692.66
2023-03-02T03:41:09.148Z,94680.56
2023-03-02T03:43:35.522Z,94687.19
2023-03-02T03:46:01.968Z,94686.72
2023-03-02T03:48:28.393Z,94690.56
2023-03-02T03:50:54.786Z,94684.03
2023-03-02T03:53:21.176Z,94688.84
2023-03-02T03:55:47.583Z,94685.34
2023-03-02T03:58:14.047Z,94686.66
2023-03-02T04:00:40.459Z,94688.31
2023-03-02T04:03:06.840Z,94682.72
2023-03-02T04:05:33.218Z,94685.53
2023-03-02T04:07:59.587Z,94690.78
2023-03-02T04:10:25.989Z,94689.66
2023-03-02T04:12:52.423Z,94682.16
2023-03-02T04:15:18.828Z,94690.91
2023-03-02T04:17:45.210Z,94688.56
2023-03-02T04:20:11.601Z,94691.25
2023-03-02T04:22:38.049Z,94693.94
2023-03-02T04:25:04.465Z,94691.84
2023-03-02T04:27:30.845Z,94695.56
2023-03-02T04:29:57.223Z,94701.09
2023-03-02T04:32:23.665Z,94696.19
2023-03-02T04:34:50.070Z,94702.47
2023-03-02T04:37:16.454Z,94703.56
2023-03-02T04:39:42.853Z,94710.53
2023-03-02T04:42:09.263Z,94714.44
2023-03-02T04:44:35.648Z,94709.16
2023-03-02T04:47:02.036Z,94713.50
2023-03-02T04:49:28.444Z,94722.91
2023-03-02T04:51:54.822Z,94730.06
2023-03-02T04:54:21.233Z,94723.66
2023-03-02T04:56:47.610Z,94719.81
2023-03-02T04:59:14.033Z,94726.00
2023-03-02T05:01:40.447Z,94727.53
2023-03-02T05:04:06.909Z,94727.03
2023-03-02T05:06:33.663Z,94726.97
2023-03-02T05:09:00.300Z,94725.53
2023-03-02T05:11:26.710Z,94722.97
2023-03-02T05:13:53.100Z,94715.34
2023-03-02T05:16:19.638Z,94717.28
2023-03-02T05:18:46.119Z,94717.34
2023-03-02T05:21:12.487Z,94719.00
2023-03-02T05:23:38.885Z,94719.28
2023-03-02T05:26:05.263Z,94715.56
2023-03-02T05:28:31.634Z,94728.50
2023-03-02T05:30:58.058Z,94728.91
2023-03-02T05:33:24.436Z,94734.47
2023-03-02T05:35:50.926Z,94731.94
2023-03-02T05:38:17.322Z,94726.00
2023-03-02T05:40:43.699Z,94726.84
2023-03-02T05:43:10.080Z,94732.88
2023-03-02T05:45:36.546Z,94733.03
2023-03-02T05:48:02.962Z,94746.53
2023-03-02T05:50:29.364Z,94733.50
2023-03-02T05:52:55.744Z,94732.34
2023-03-02T05:55:22.118Z,94728.63
2023-03-02T05:57:48.580Z,94749.22
2023-03-02T06:00:14.952Z,94750.38
2023-03-02T06:02:41.412Z,94758.34
2023-03-02T06:05:07.808Z,94761.13
2023-03-02T06:07:34.209Z,94766.75
2023-03-02T06:10:00.652Z,94763.53
2023-03-02T06:12:27.029Z,94772.66
2023-03-02T06:14:53.421Z,94772.28
2023-03-02T06:17:22.044Z,94774.75
2023-03-02T06:19:48.446Z,94776.06
2023-03-02T06:22:14.877Z,94772.97
2023-03-02T06:24:41.315Z,94777.50
2023-03-02T06:27:07.827Z,94776.81
2023-03-02T06:29:34.230Z,94771.38
2023-03-02T06:32:00.752Z,94779.56
2023-03-02T06:34:28.216Z,94780.53
2023-03-02T06:36:54.584Z,94781.44
2023-03-02T06:39:20.966Z,94783.69
2023-03-02T06:41:47.336Z,94788.66
2023-03-02T06:44:13.736Z,94788.72
2023-03-02T06:46:40.178Z,94799.03
2023-03-02T06:49:06.634Z,94802.16
2023-03-02T06:51:33.022Z,94802.69
2023-03-02T06:53:59.563Z,94802.63
2023-03-02T06:56:25.973Z,94806.47
2023-03-02T06:58:52.402Z,94802.00
2023-03-02T07:01:18.788Z,94803.81
2023-03-02T07:03:45.220Z,94806.00
2023-03-02T07:06:11.633Z,94799.06
2023-03-02T07:08:38.025Z,94804.69
2023-03-02T07:11:04.414Z,94808.22
2023-03-02T07:13:30.814Z,94800.91
2023-03-02T07:15:57.181Z,94800.91
2023-03-02T07:18:23.563Z,94809.47
2023-03-02T07:20:49.934Z,94810.97
2023-03-02T07:23:16.369Z,94818.47
2023-03-02T07:25:42.779Z,94811.03
2023-03-02T07:28:09.228Z,94815.72
2023-03-02T07:30:35.652Z,94826.13
2023-03-02T07:33:02.057Z,94818.34
2023-03-02T07:35:28.568Z,94813.66
2023-03-02T07:37:55.028Z,94813.25
2023-03-02T07:40:21.422Z,94819.38
2023-03-02T07:42:47.810Z,94815.09
2023-03-02T07:45:14.220Z,94815.78
2023-03-02T07:47:40.605Z,94821.16
2023-03-02T07:50:06.985Z,94817.84
2023-03-02T07:52:33.390Z,94819.66
2023-03-02T07:54:59.818Z,94826.81
2023-03-02T07:57:26.288Z,94835.28
2023-03-02T07:59:52.705Z,94830.13
2023-03-02T08:02:19.138Z,94833.81
2023-03-02T08:04:45.523Z,94841.13
2023-03-02T08:07:11.880Z,94845.66
2023-03-02T08:09:38.274Z,94847.88
2023-03-02T08:12:04.644Z,94843.97
2023-03-02T08:14:31.013Z,94840.13
2023-03-02T08:16:57.380Z,94844.53
2023-03-02T08:19:23.781Z,94853.78
2023-03-02T08:21:50.172Z,94856.97
2023-03-02T08:24:16.598Z,94857.88
2023-03-02T08:26:42.989Z,94856.03
2023-03-02T08:29:09.350Z,94866.72
2023-03-02T08:31:36.135Z,94860.13
2023-03-02T08:34:02.641Z,94869.09
2023-03-02T08:36:29.126Z,94861.09
2023-03-02T08:38:55.534Z,94857.09
2023-03-02T08:41:21.946Z,94862.06
2023-03-02T08:43:48.334Z,94865.59
2023-03-02T08:46:14.857Z,94865.59
2023-03-02T08:48:41.251Z,94862.56
2023-03-02T08:51:07.625Z,94859.38
2023-03-02T08:53:34.069Z,94857.22
2023-03-02T08:56:00.468Z,94862.28
2023-03-02T08:58:26.877Z,94863.56
2023-03-02T09:00:53.335Z,94866.28
2023-03-02T09:03:39.675Z,94866.91
2023-03-02T09:06:06.105Z,94864.78
2023-03-02T09:08:32.483Z,94870.16
2023-03-02T09:10:58.853Z,94862.56
2023-03-02T09:13:25.233Z,94866.19
2023-03-02T09:15:51.628Z,94867.25
2023-03-02T09:18:18.041Z,94865.81
2023-03-02T09:20:44.564Z,94871.59
2023-03-02T09:23:10.974Z,94871.72
2023-03-02T09:25:37.361Z,94879.16
2023-03-02T09:28:03.746Z,94881.34
2023-03-02T09:30:30.162Z,94884.34
2023-03-02T09:32:56.645Z,94890.28
2023-03-02T09:35:23.091Z,94889.34
2023-03-02T09:37:49.579Z,94889.53
2023-03-02T09:40:16.039Z,94889.50
2023-03-02T09:42:44.346Z,94889.03
2023-03-02T09:45:10.987Z,94893.63
2023-03-02T09:47:37.374Z,94885.56
2023-03-02T09:50:03.788Z,94881.22
2023-03-02T09:52:30.158Z,94891.91
2023-03-02T09:54:56.548Z,94894.41
2023-03-02T09:57:22.962Z,94894.06
2023-03-02T09:59:49.346Z,94904.25
2023-03-02T10:02:15.742Z,94888.88
2023-03-02T10:04:42.161Z,94901.06
2023-03-02T10:07:08.577Z,94899.88
2023-03-02T10:09:34.954Z,94893.91
2023-03-02T10:12:01.347Z,94893.63
2023-03-02T10:14:27.738Z,94895.22
2023-03-02T10:16:54.137Z,94899.28
2023-03-02T10:19:20.525Z,94905.22
2023-03-02T10:21:46.907Z,94890.06
2023-03-02T10:24:13.348Z,94895.09
2023-03-02T10:26:39.739Z,94902.69
2023-03-02T10:29:06.129Z,94907.75
2023-03-02T10:31:32.500Z,94905.00
2023-03-02T10:33:58.873Z,94911.53
2023-03-02T10:36:25.305Z,94913.34
2023-03-02T10:38:51.677Z,94912.06
2023-03-02T10:41:18.054Z,94913.28
2023-03-02T10:43:44.477Z,94921.50
2023-03-02T10:46:10.938Z,94922.19
2023-03-02T10:48:40.919Z,94917.59
2023-03-02T10:51:07.532Z,94916.13
2023-03-02T10:53:33.909Z,94915.47
2023-03-02T10:56:01.298Z,94920.25
2023-03-02T10:58:27.660Z,94917.25
2023-03-02T11:00:54.088Z,94900.03
2023-03-02T11:03:20.495Z,94914.00
2023-03-02T11:05:46.864Z,94901.53
2023-03-02T11:08:13.227Z,94907.13
2023-03-02T11:10:39.654Z,94910.16
2023-03-02T11:13:06.023Z,94903.63
2023-03-02T11:15:32.403Z,94902.72
2023-03-02T11:17:58.844Z,94905.09
2023-03-02T11:20:25.217Z,94900.69
2023-03-02T11:22:51.631Z,94907.22
2023-03-02T11:25:17.992Z,94902.69
2023-03-02T11:27:44.390Z,94897.19
2023-03-02T11:30:10.779Z,94898.50
2023-03-02T11:32:37.287Z,94909.88
2023-03-02T11:35:03.707Z,94905.34
2023-03-02T11:37:30.123Z,94909.34
2023-03-02T11:39:56.508Z,94898.69
2023-03-02T11:42:23.005Z,94889.66
2023-03-02T11:44:49.454Z,94898.22
2023-03-02T11:47:15.919Z,94897.34
2023-03-02T11:49:42.711Z,94896.09
2023-03-02T11:52:09.074Z,94899.22
2023-03-02T11:54:35.480Z,94895.94
2023-03-02T11:57:01.869Z,94896.13
2023-03-02T11:59:28.915Z,94893.72
2023-03-02T12:01:55.454Z,94891.59
2023-03-02T12:04:21.967Z,94887.41
2023-03-02T12:06:48.367Z,94885.53
2023-03-02T12:09:14.840Z,94889.25
2023-03-02T12:11:41.232Z,94880.25
2023-03-02T12:14:07.619Z,94884.13
2023-03-02T12:16:34.435Z,94882.28
2023-03-02T12:19:01.102Z,94880.25
2023-03-02T12:21:27.485Z,94870.53
2023-03-02T12:23:53.869Z,94881.31
2023-03-02T12:26:20.309Z,94879.06
2023-03-02T12:28:46.703Z,94867.66
2023-03-02T12:31:13.145Z,94869.66
2023-03-02T12:33:39.547Z,94873.19
2023-03-02T12:36:05.919Z,94864.28
2023-03-02T12:38:32.310Z,94863.13
2023-03-02T12:40:58.765Z,94850.31
2023-03-02T12:43:25.145Z,94858.75
2023-03-02T12:45:51.532Z,94853.53
2023-03-02T12:48:18.260Z,94853.28
2023-03-02T12:50:44.775Z,94847.00
2023-03-02T12:53:11.142Z,94846.09
2023-03-02T12:55:37.583Z,94837.94
2023-03-02T12:58:03.994Z,94838.69
2023-03-02T13:00:30.502Z,94836.81
2023-03-02T13:02:56.956Z,94838.69
2023-03-02T13:05:23.443Z,94841.28
2023-03-02T13:07:50.023Z,94837.56
2023-03-02T13:10:16.418Z,94827.41
2023-03-02T13:12:42.829Z,94825.88
2023-03-02T13:15:09.207Z,94829.66
2023-03-02T13:17:35.589Z,94825.88
2023-03-02T13:20:01.974Z,94830.75
2023-03-02T13:22:28.457Z,94834.50
2023-03-02T13:24:54.919Z,94833.34
2023-03-02T13:27:21.371Z,94824.31
2023-03-02T13:29:47.824Z,94814.28
2023-03-02T13:32:14.239Z,94818.91
2023-03-02T13:34:40.647Z,94815.72
2023-03-02T13:37:07.026Z,94820.53
2023-03-02T13:39:33.422Z,94815.38
2023-03-02T13:41:59.877Z,94815.63
2023-03-02T13:44:26.294Z,94815.13
2023-03-02T13:46:52.732Z,94805.78
2023-03-02T13:49:19.123Z,94813.13
2023-03-02T13:51:45.540Z,94802.38
2023-03-02T13:54:12.083Z,94809.72
2023-03-02T13:56:38.474Z,94809.00
2023-03-02T13:59:04.850Z,94806.81
2023-03-02T14:01:31.284Z,94802.16
2023-03-02T14:03:57.804Z,94808.34
2023-03-02T14:06:24.258Z,94809.22
2023-03-02T14:08:50.617Z,94813.06
2023-03-02T14:11:17.003Z,94805.88
2023-03-02T14:13:43.382Z,94809.22
2023-03-02T14:16:09.799Z,94805.72
2023-03-02T14:18:36.178Z,94803.22
2023-03-02T14:21:02.693Z,94798.56
2023-03-02T14:23:29.154Z,94809.97
2023-03-02T14:25:55.552Z,94804.59
2023-03-02T14:28:21.944Z,94796.16
2023-03-02T14:30:48.401Z,94795.22
2023-03-02T14:33:14.831Z,94796.72
2023-03-02T14:35:44.630Z,94796.03
2023-03-02T14:38:10.998Z,94792.09
2023-03-02T14:40:37.384Z,94799.66
2023-03-02T14:43:03.788Z,94787.81
2023-03-02T14:45:30.928Z,94799.28
2023-03-02T14:47:57.463Z,94792.41
2023-03-02T14:50:23.871Z,94790.31
2023-03-02T14:52:50.257Z,94791.78
2023-03-02T14:55:16.640Z,94795.25
2023-03-02T14:57:43.069Z,94789.59
2023-03-02T15:00:09.458Z,94795.78
2023-03-02T15:02:35.928Z,94801.91
2023-03-02T15:05:02.403Z,94788.75
2023-03-02T15:07:28.767Z,94795.66
2023-03-02T15:09:55.197Z,94799.22
2023-03-02T15:12:21.601Z,94784.66
2023-03-02T15:14:47.981Z,94794.16
2023-03-02T15:17:14.401Z,94797.50
2023-03-02T15:19:40.800Z,94796.06
2023-03-02T15:22:07.367Z,94794.88
2023-03-02T15:24:33.791Z,94797.53
2023-03-02T15:27:01.543Z,94795.44
2023-03-02T15:29:27.953Z,94796.44
2023-03-02T15:31:54.512Z,94798.19
2023-03-02T15:34:21.051Z,94788.81
2023-03-02T15:36:47.499Z,94798.28
2023-03-02T15:39:13.918Z,94794.97
2023-03-02T15:41:40.381Z,94795.00
2023-03-02T15:44:06.783Z,94796.63
2023-03-02T15:46:33.234Z,94790.34
2023-03-02T15:48:59.683Z,94788.97
2023-03-02T15:51:29.349Z,94790.97
2023-03-02T15:53:55.724Z,94789.69
2023-03-02T15:56:22.886Z,94797.13
2023-03-02T15:58:49.367Z,94797.81
2023-03-02T16:01:15.779Z,94800.50
2023-03-02T16:03:42.227Z,94796.03
2023-03-02T16:06:08.608Z,94797.88
2023-03-02T16:08:35.001Z,94800.84
2023-03-02T16:11:01.458Z,94803.03
2023-03-02T16:13:27.968Z,94802.25
2023-03-02T16:15:54.393Z,94804.25
2023-03-02T16:18:20.769Z,94803.78
2023-03-02T16:20:47.174Z,94805.56
2023-03-02T16:23:13.619Z,94809.34
2023-03-02T16:25:40.051Z,94811.53
2023-03-02T16:28:06.441Z,94816.78
2023-03-02T16:30:32.843Z,94813.31
2023-03-02T16:32:59.226Z,94821.13
2023-03-02T16:35:25.613Z,94815.34
2023-03-02T16:37:52.100Z,94823.09
2023-03-02T16:40:18.484Z,94823.53
2023-03-02T16:42:44.891Z,94821.84
2023-03-02T16:45:11.297Z,94825.13
2023-03-02T16:47:37.660Z,94816.31
2023-03-02T16:50:04.086Z,94823.75
2023-03-02T16:52:30.452Z,94828.94
2023-03-02T16:54:56.862Z,94828.97
2023-03-02T16:57:23.266Z,94833.88
2023-03-02T16:59:49.645Z,94838.59
2023-03-02T17:02:16.071Z,94840.03
2023-03-02T17:04:42.466Z,94841.28
2023-03-02T17:07:08.922Z,94841.31
2023-03-02T17:09:35.316Z,94846.97
2023-03-02T17:12:01.716Z,94847.75
2023-03-02T17:14:28.099Z,94852.66
2023-03-02T17:16:54.518Z,94854.16
2023-03-02T17:19:20.874Z,94855.66
2023-03-02T17:21:47.274Z,94869.63
2023-03-02T17:24:13.684Z,94873.41
2023-03-02T17:26:40.066Z,94876.38
2023-03-02T17:29:06.480Z,94880.53
2023-03-02T17:31:32.920Z,94884.31
2023-03-02T17:33:59.385Z,94879.41
2023-03-02T17:36:25.861Z,94893.31
2023-03-02T17:38:52.220Z,94886.13
2023-03-02T17:41:18.590Z,94892.16
2023-03-02T17:43:45.038Z,94890.59
2023-03-02T17:46:11.438Z,94892.13
2023-03-02T17:48:37.960Z,94895.91
2023-03-02T17:51:04.372Z,94896.25
2023-03-02T17:53:30.756Z,94906.41
2023-03-02T17:55:57.146Z,94907.91
2023-03-02T17:58:25.264Z,94918.47
2023-03-02T18:00:54.096Z,94914.69
2023-03-02T18:03:20.602Z,94921.03
2023-03-02T18:05:47.046Z,94921.31
2023-03-02T18:08:13.411Z,94916.81
2023-03-02T18:10:39.766Z,94926.69
2023-03-02T18:13:06.172Z,94921.34
2023-03-02T18:15:32.553Z,94932.63
2023-03-02T18:17:58.935Z,94940.13
2023-03-02T18:20:25.322Z,94941.59
2023-03-02T18:22:51.759Z,94931.34
2023-03-02T18:25:18.157Z,94937.78
2023-03-02T18:27:44.558Z,94947.91
2023-03-02T18:30:11.052Z,94946.84
2023-03-02T18:32:37.509Z,94943.84
2023-03-02T18:35:03.894Z,94948.75
2023-03-02T18:37:30.347Z,94942.31
2023-03-02T18:39:56.764Z,94950.22
2023-03-02T18:42:23.168Z,94958.13
2023-03-02T18:44:49.641Z,94955.13
2023-03-02T18:47:16.040Z,94958.13
2023-03-02T18:49:42.401Z,94955.69
2023-03-02T18:52:08.768Z,94955.28
2023-03-02T18:54:35.155Z,94957.31
2023-03-02T18:57:01.569Z,94954.03
2023-03-02T18:59:27.995Z,94954.75
2023-03-02T19:01:54.410Z,94954.78
2023-03-02T19:04:20.851Z,94956.28
2023-03-02T19:06:47.215Z,94956.97
2023-03-02T19:09:13.596Z,94956.06
2023-03-02T19:11:39.963Z,94965.50
2023-03-02T19:14:06.342Z,94970.41
2023-03-02T19:16:32.747Z,94963.69
2023-03-02T19:18:59.184Z,94970.00
2023-03-02T19:21:25.621Z,94970.72
2023-03-02T19:23:52.042Z,94963.59
2023-03-02T19:26:18.405Z,94968.06
2023-03-02T19:28:44.819Z,94965.84
2023-03-02T19:31:11.332Z,94967.19
2023-03-02T19:33:37.881Z,94967.97
2023-03-02T19:36:04.282Z,94968.69
2023-03-02T19:38:30.694Z,94971.25
2023-03-02T19:40:57.072Z,94964.50
2023-03-02T19:43:23.453Z,94978.44
2023-03-02T19:45:49.901Z,94966.16
2023-03-02T19:48:16.318Z,94972.28
2023-03-02T19:50:42.711Z,94973.09
2023-03-02T19:53:09.071Z,94965.53
2023-03-02T19:55:35.460Z,94966.56
2023-03-02T19:58:01.863Z,94960.97
2023-03-02T20:00:28.242Z,94973.31
2023-03-02T20:02:54.862Z,94972.94
2023-03-02T20:05:21.311Z,94974.41
2023-03-02T20:07:47.702Z,94968.50
2023-03-02T20:10:14.105Z,94970.97
2023-03-02T20:12:40.495Z,94961.56
2023-03-02T20:15:06.905Z,94969.97
2023-03-02T20:17:33.289Z,94970.91
2023-03-02T20:19:59.688Z,94973.16
2023-03-02T20:22:26.269Z,94974.81
2023-03-02T20:24:52.730Z,94973.25
2023-03-02T20:27:19.166Z,94981.63
2023-03-02T20:29:45.709Z,94981.59
2023-03-02T20:32:12.214Z,94979.78
2023-03-02T20:34:38.722Z,94987.28
2023-03-02T20:37:05.127Z,94989.56
2023-03-02T20:39:31.580Z,94990.72
2023-03-02T20:41:57.963Z,94992.97
2023-03-02T20:44:24.385Z,94994.47
2023-03-02T20:46:50.789Z,94988.44
2023-03-02T20:49:17.207Z,94989.81
2023-03-02T20:51:43.610Z,94985.41
2023-03-02T20:54:10.081Z,95001.19
2023-03-02T20:56:36.482Z,94996.63
2023-03-02T20:59:02.856Z,95001.81
2023-03-02T21:01:29.359Z,94999.50
2023-03-02T21:03:55.773Z,95001.59
2023-03-02T21:06:22.134Z,95014.38
2023-03-02T21:08:48.584Z,95000.19
2023-03-02T21:11:15.068Z,95003.97
2023-03-02T21:13:41.612Z,95007.63
2023-03-02T21:16:08.054Z,95005.38
2023-03-02T21:18:34.483Z,95006.59
2023-03-02T21:21:00.899Z,94999.72
2023-03-02T21:23:27.275Z,95009.47
2023-03-02T21:25:53.685Z,95003.06
2023-03-02T21:28:20.058Z,95010.63
2023-03-02T21:30:46.633Z,95009.16
2023-03-02T21:33:13.034Z,95009.22
2023-03-02T21:35:39.454Z,95000.22
2023-03-02T21:38:05.916Z,95009.03
2023-03-02T21:40:32.380Z,95003.06
2023-03-02T21:42:58.783Z,95005.28
2023-03-02T21:45:25.181Z,95009.16
2023-03-02T21:47:51.577Z,94998.53
2023-03-02T21:50:17.979Z,95001.25
2023-03-02T21:52:44.367Z,94996.38
2023-03-02T21:55:10.814Z,95006.09
2023-03-02T21:57:37.334Z,94999.28
2023-03-02T22:00:03.713Z,94992.69
2023-03-02T22:02:30.122Z,94998.63
2023-03-02T22:04:56.504Z,94994.25
2023-03-02T22:07:22.877Z,94988.91
2023-03-02T22:09:49.285Z,94995.84
2023-03-02T22:12:15.670Z,94994.16
2023-03-02T22:14:42.027Z,94993.34
2023-03-02T22:17:08.479Z,94996.78
2023-03-02T22:19:34.849Z,94994.06
2023-03-02T22:22:01.270Z,94992.50
2023-03-02T22:24:27.773Z,94995.94
2023-03-02T22:26:54.181Z,94990.28
2023-03-02T22:29:23.392Z,94990.84
2023-03-02T22:31:49.834Z,94989.47
2023-03-02T22:34:17.619Z,94996.25
2023-03-02T22:36:45.108Z,94989.94
2023-03-02T22:39:11.537Z,94992.47
2023-03-02T22:41:37.902Z,94980.84
2023-03-02T22:44:04.299Z,94979.84
2023-03-02T22:46:30.690Z,94978.88
2023-03-02T22:48:57.069Z,94979.94
2023-03-02T22:51:23.461Z,94979.59
2023-03-02T22:53:49.843Z,94980.56
2023-03-02T22:56:16.223Z,94980.38
2023-03-02T22:58:42.685Z,94986.28
2023-03-02T23:01:09.217Z,94980.22
2023-03-02T23:03:35.677Z,94981.75
2023-03-02T23:06:02.074Z,94984.66
2023-03-02T23:08:28.454Z,94982.03
2023-03-02T23:10:54.854Z,94988.41
2023-03-02T23:13:21.265Z,94984.59
2023-03-02T23:15:47.686Z,94989.63
2023-03-02T23:18:14.140Z,94985.06
2023-03-02T23:20:40.503Z,94979.53
2023-03-02T23:23:06.914Z,94985.41
2023-03-02T23:25:33.269Z,94985.22
2023-03-02T23:27:59.638Z,94987.72
2023-03-02T23:30:26.017Z,94982.31
2023-03-02T23:32:52.429Z,94984.56
2023-03-02T23:35:18.923Z,94986.25
2023-03-02T23:37:45.361Z,94979.56
2023-03-02T23:40:11.756Z,94983.00
2023-03-02T23:42:38.115Z,94977.81
2023-03-02T23:45:04.511Z,94992.03
2023-03-02T23:47:31.683Z,94984.97
2023-03-02T23:49:58.081Z,94986.84
2023-03-02T23:52:24.459Z,94987.91
2023-03-02T23:54:50.845Z,94983.06
2023-03-02T23:57:17.217Z,94973.72
2023-03-02T23:59:43.603Z,94979.38
